createdAt,value
2022-10-31T00:00:09.887Z,49.00
2022-10-31T00:03:14.763Z,50.38
2022-10-31T00:06:19.391Z,49.55
2022-10-31T00:09:23.791Z,48.45
2022-10-31T00:12:28.241Z,48.65
2022-10-31T00:15:39.142Z,48.00
2022-10-31T00:18:44.072Z,48.00
2022-10-31T00:21:48.700Z,48.47
2022-10-31T00:24:52.868Z,47.78
2022-10-31T00:27:57.630Z,50.30
2022-10-31T00:31:04.243Z,49.97
2022-10-31T00:34:08.388Z,49.58
2022-10-31T00:37:12.575Z,54.22
2022-10-31T00:40:17.343Z,55.63
2022-10-31T00:43:21.779Z,54.40
2022-10-31T00:46:25.848Z,55.42
2022-10-31T00:49:30.474Z,56.67
2022-10-31T00:52:35.230Z,58.45
2022-10-31T00:55:39.752Z,60.33
2022-10-31T00:58:44.223Z,62.60
2022-10-31T01:01:48.776Z,63.00
2022-10-31T01:04:53.126Z,60.75
2022-10-31T01:07:57.400Z,65.72
2022-10-31T01:11:05.461Z,63.75
2022-10-31T01:14:10.778Z,63.42
2022-10-31T01:17:15.843Z,64.43
2022-10-31T01:20:21.567Z,67.35
2022-10-31T01:23:26.169Z,64.18
2022-10-31T01:26:33.078Z,64.68
2022-10-31T01:29:38.612Z,63.65
2022-10-31T01:32:43.036Z,64.00
2022-10-31T01:35:47.251Z,66.43
2022-10-31T01:38:54.937Z,65.97
2022-10-31T01:41:59.745Z,65.20
2022-10-31T01:45:06.301Z,64.88
2022-10-31T01:48:16.858Z,69.07
2022-10-31T01:51:29.237Z,68.88
2022-10-31T01:54:41.898Z,67.95
2022-10-31T01:57:52.753Z,68.22
2022-10-31T02:01:04.823Z,67.32
2022-10-31T02:04:12.159Z,66.18
2022-10-31T02:07:27.953Z,67.00
2022-10-31T02:10:36.752Z,64.97
2022-10-31T02:13:41.156Z,64.72
2022-10-31T02:20:15.642Z,62.10
2022-10-31T02:23:54.804Z,61.45
2022-10-31T02:27:54.070Z,57.90
2022-10-31T02:31:44.369Z,54.92
2022-10-31T02:35:29.345Z,51.83
2022-10-31T02:39:13.918Z,49.90
2022-10-31T02:42:28.889Z,47.13
2022-10-31T02:45:45.823Z,44.53
2022-10-31T02:48:55.694Z,41.17
2022-10-31T02:52:00.298Z,41.60
2022-10-31T02:55:34.696Z,37.97
2022-10-31T02:58:50.423Z,39.00
2022-10-31T03:02:00.451Z,35.85
2022-10-31T03:05:26.254Z,36.17
2022-10-31T03:08:39.889Z,34.70
2022-10-31T03:12:08.101Z,34.00
2022-10-31T03:15:24.247Z,32.10
2022-10-31T03:18:38.461Z,31.75
2022-10-31T03:21:50.262Z,31.90
2022-10-31T03:24:56.752Z,30.25
2022-10-31T03:28:04.018Z,31.48
2022-10-31T03:31:10.060Z,32.80
2022-10-31T03:34:18.172Z,32.30
2022-10-31T03:37:25.736Z,34.42
2022-10-31T03:40:32.473Z,34.05
2022-10-31T03:43:43.530Z,32.90
2022-10-31T03:46:48.425Z,33.13
2022-10-31T03:49:53.532Z,32.38
2022-10-31T03:53:39.653Z,32.28
2022-10-31T03:56:57.951Z,32.05
2022-10-31T04:00:11.200Z,35.30
2022-10-31T04:03:28.674Z,34.57
2022-10-31T04:06:37.079Z,34.28
2022-10-31T04:09:46.329Z,36.75
2022-10-31T04:12:59.058Z,36.30
2022-10-31T04:16:04.323Z,35.88
2022-10-31T04:19:08.543Z,40.03
2022-10-31T04:22:12.999Z,45.47
2022-10-31T04:25:17.574Z,45.08
2022-10-31T04:28:22.737Z,42.88
2022-10-31T04:31:27.359Z,48.88
2022-10-31T04:34:31.876Z,48.33
2022-10-31T04:40:40.434Z,47.05
2022-10-31T04:43:44.838Z,47.13
2022-10-31T04:46:49.190Z,47.10
2022-10-31T04:49:53.764Z,46.30
2022-10-31T04:56:02.013Z,43.50
2022-10-31T04:59:06.315Z,41.13
2022-10-31T05:02:10.487Z,40.50
2022-10-31T05:05:17.173Z,39.45
2022-10-31T05:08:21.565Z,37.13
2022-10-31T05:11:25.675Z,40.20
2022-10-31T05:14:30.163Z,35.85
2022-10-31T05:17:34.750Z,33.42
2022-10-31T05:20:38.916Z,35.30
2022-10-31T05:23:47.478Z,33.95
2022-10-31T05:26:53.074Z,33.67
2022-10-31T05:29:57.512Z,37.08
2022-10-31T05:33:02.651Z,39.00
2022-10-31T05:36:07.908Z,35.05
2022-10-31T05:39:12.403Z,31.40
2022-10-31T05:42:16.604Z,35.10
2022-10-31T05:45:22.642Z,34.25
2022-10-31T05:48:27.005Z,36.47
2022-10-31T05:51:31.490Z,34.75
2022-10-31T05:54:35.627Z,33.28
2022-10-31T05:57:39.844Z,35.38
2022-10-31T06:00:44.074Z,33.28
2022-10-31T06:03:48.155Z,38.33
2022-10-31T06:06:52.823Z,36.72
2022-10-31T06:09:57.070Z,38.50
2022-10-31T06:13:01.766Z,43.30
2022-10-31T06:19:10.237Z,42.22
2022-10-31T06:22:14.553Z,43.45
2022-10-31T06:25:18.841Z,44.15
2022-10-31T06:28:23.731Z,44.70
2022-10-31T06:31:28.394Z,44.95
2022-10-31T06:34:32.763Z,54.25
2022-10-31T06:37:38.465Z,60.97
2022-10-31T06:40:42.759Z,58.65
2022-10-31T06:43:50.084Z,54.63
2022-10-31T06:46:54.586Z,54.10
2022-10-31T06:49:58.846Z,52.65
2022-10-31T06:53:05.527Z,50.25
2022-10-31T06:56:09.907Z,52.03
2022-10-31T06:59:15.325Z,69.22
2022-10-31T07:02:20.012Z,52.72
2022-10-31T07:05:25.421Z,49.78
2022-10-31T07:08:30.218Z,51.75
2022-10-31T07:11:34.733Z,54.80
2022-10-31T07:14:39.007Z,49.05
2022-10-31T07:17:43.473Z,52.05
2022-10-31T07:20:49.063Z,49.63
2022-10-31T07:23:53.284Z,50.08
2022-10-31T07:30:09.275Z,43.72
2022-10-31T07:33:13.619Z,42.53
2022-10-31T07:36:18.063Z,44.78
2022-10-31T07:39:23.033Z,47.17
2022-10-31T07:42:28.477Z,46.22
2022-10-31T07:45:33.577Z,38.58
2022-10-31T07:48:37.743Z,37.63
2022-10-31T07:51:46.355Z,37.40
2022-10-31T07:54:51.208Z,37.83
2022-10-31T07:58:16.160Z,38.60
2022-10-31T08:01:20.964Z,39.08
2022-10-31T08:04:25.176Z,38.80
2022-10-31T08:07:30.068Z,36.67
2022-10-31T08:10:35.713Z,37.00
2022-10-31T08:13:39.995Z,37.92
2022-10-31T08:16:44.735Z,38.60
2022-10-31T08:19:49.284Z,37.72
2022-10-31T08:23:02.543Z,38.25
2022-10-31T08:26:07.292Z,41.20
2022-10-31T08:29:11.852Z,41.65
2022-10-31T08:32:16.590Z,40.97
2022-10-31T08:35:20.837Z,37.78
2022-10-31T08:38:25.578Z,38.72
2022-10-31T08:41:31.128Z,37.10
2022-10-31T08:44:35.715Z,37.92
2022-10-31T08:47:41.044Z,39.67
2022-10-31T08:50:46.435Z,36.00
2022-10-31T08:53:50.432Z,38.25
2022-10-31T08:56:56.566Z,37.10
2022-10-31T09:00:00.802Z,38.67
2022-10-31T09:03:11.647Z,38.20
2022-10-31T09:06:16.013Z,40.50
2022-10-31T09:09:20.844Z,40.40
2022-10-31T09:12:25.301Z,39.90
2022-10-31T09:15:30.211Z,37.95
2022-10-31T09:18:35.257Z,40.13
2022-10-31T09:21:39.634Z,40.92
2022-10-31T09:24:44.010Z,40.53
2022-10-31T09:27:48.736Z,39.50
2022-10-31T09:30:54.950Z,39.55
2022-10-31T09:33:59.150Z,37.65
2022-10-31T09:37:03.666Z,38.55
2022-10-31T09:40:08.498Z,37.42
2022-10-31T09:43:31.836Z,36.10
2022-10-31T09:47:11.476Z,33.28
2022-10-31T09:50:23.620Z,31.55
2022-10-31T09:54:01.242Z,35.42
2022-10-31T09:57:11.687Z,32.22
2022-10-31T10:00:20.301Z,32.30
2022-10-31T10:03:58.857Z,25.05
2022-10-31T10:07:20.416Z,23.00
2022-10-31T10:10:50.360Z,21.08
2022-10-31T10:14:00.285Z,19.70
2022-10-31T10:17:43.468Z,23.52
2022-10-31T10:21:11.670Z,25.25
2022-10-31T10:24:41.890Z,22.45
2022-10-31T10:28:39.557Z,21.40
2022-10-31T10:31:46.902Z,23.98
2022-10-31T10:34:57.916Z,25.10
2022-10-31T10:38:38.561Z,25.83
2022-10-31T10:42:08.939Z,25.25
2022-10-31T10:45:41.033Z,24.02
2022-10-31T10:49:00.998Z,22.85
2022-10-31T10:52:46.043Z,22.95
2022-10-31T10:56:21.701Z,23.30
2022-10-31T10:59:27.216Z,26.48
2022-10-31T11:02:34.205Z,25.02
2022-10-31T11:06:02.693Z,25.23
2022-10-31T11:09:11.812Z,23.88
2022-10-31T11:12:22.363Z,24.20
2022-10-31T11:15:28.562Z,23.38
2022-10-31T11:18:38.403Z,24.08
2022-10-31T11:21:43.407Z,21.00
2022-10-31T11:24:48.042Z,18.23
2022-10-31T11:28:09.800Z,18.23
2022-10-31T11:31:16.460Z,17.90
2022-10-31T11:34:39.456Z,17.48
2022-10-31T11:37:46.342Z,15.82
2022-10-31T11:40:58.454Z,14.88
2022-10-31T11:44:27.313Z,13.40
2022-10-31T11:47:33.614Z,12.13
2022-10-31T11:50:43.535Z,12.18
2022-10-31T11:54:01.876Z,12.77
2022-10-31T11:57:43.094Z,11.65
2022-10-31T12:00:52.781Z,12.23
2022-10-31T12:04:13.441Z,11.80
2022-10-31T12:07:17.573Z,10.63
2022-10-31T12:10:35.371Z,11.70
2022-10-31T12:14:13.679Z,11.52
2022-10-31T12:17:27.434Z,12.63
2022-10-31T12:21:21.993Z,10.07
2022-10-31T12:25:06.715Z,10.63
2022-10-31T12:28:55.200Z,9.68
2022-10-31T12:32:31.785Z,10.70
2022-10-31T12:36:17.861Z,10.18
2022-10-31T12:39:31.867Z,12.15
2022-10-31T12:46:44.013Z,14.88
2022-10-31T12:50:41.752Z,12.27
2022-10-31T12:54:16.766Z,10.65
2022-10-31T13:00:45.625Z,12.07
2022-10-31T13:04:02.596Z,11.63
2022-10-31T13:07:18.733Z,10.35
2022-10-31T13:10:43.537Z,11.23
2022-10-31T13:14:36.311Z,9.77
2022-10-31T13:18:20.509Z,9.20
2022-10-31T13:22:02.621Z,10.45
2022-10-31T13:25:10.076Z,10.10
2022-10-31T13:28:27.338Z,10.43
2022-10-31T13:31:31.800Z,11.50
2022-10-31T13:34:39.631Z,11.35
2022-10-31T13:38:05.677Z,11.40
2022-10-31T13:41:40.883Z,10.68
2022-10-31T13:48:19.910Z,12.18
2022-10-31T13:51:36.073Z,12.75
2022-10-31T13:54:44.653Z,12.27
2022-10-31T13:57:49.260Z,11.95
2022-10-31T14:01:23.448Z,11.05
2022-10-31T14:04:40.303Z,10.82
2022-10-31T14:07:46.608Z,12.38
2022-10-31T14:10:55.095Z,11.30
2022-10-31T14:14:01.914Z,10.00
2022-10-31T14:17:07.235Z,8.48
2022-10-31T14:20:11.799Z,8.35
2022-10-31T14:23:34.273Z,8.75
2022-10-31T14:26:38.911Z,9.18
2022-10-31T14:29:50.291Z,8.93
2022-10-31T14:33:02.016Z,8.88
2022-10-31T14:36:20.062Z,8.75
2022-10-31T14:40:11.462Z,7.72
2022-10-31T14:43:58.550Z,9.57
2022-10-31T14:47:23.402Z,12.25
2022-10-31T14:50:43.987Z,10.20
2022-10-31T14:53:55.706Z,9.75
2022-10-31T14:57:24.639Z,10.43
2022-10-31T15:00:32.183Z,10.10
2022-10-31T15:03:44.804Z,10.95
2022-10-31T15:07:10.941Z,9.43
2022-10-31T15:10:25.818Z,8.70
2022-10-31T15:13:30.334Z,8.68
2022-10-31T15:16:42.893Z,8.45
2022-10-31T15:19:48.100Z,8.95
2022-10-31T15:22:53.256Z,9.80
2022-10-31T15:26:03.835Z,8.55
2022-10-31T15:29:17.610Z,8.50
2022-10-31T15:35:31.833Z,8.45
2022-10-31T15:38:36.627Z,9.35
2022-10-31T15:42:01.236Z,9.75
2022-10-31T15:45:13.892Z,8.90
2022-10-31T15:48:26.021Z,8.93
2022-10-31T15:51:34.669Z,10.20
2022-10-31T15:54:56.306Z,10.50
2022-10-31T15:58:12.716Z,9.90
2022-10-31T16:01:30.634Z,10.18
2022-10-31T16:04:34.988Z,10.57
2022-10-31T16:07:50.933Z,10.75
2022-10-31T16:11:08.800Z,11.30
2022-10-31T16:14:13.212Z,11.45
2022-10-31T16:17:22.397Z,11.82
2022-10-31T16:20:32.902Z,12.77
2022-10-31T16:23:39.600Z,13.63
2022-10-31T16:26:53.343Z,13.35
2022-10-31T16:30:05.157Z,15.85
2022-10-31T16:33:41.406Z,15.18
2022-10-31T16:36:46.125Z,15.90
2022-10-31T16:39:50.667Z,15.95
2022-10-31T16:42:59.517Z,15.85
2022-10-31T16:46:05.185Z,16.20
2022-10-31T16:49:11.054Z,15.88
2022-10-31T16:52:16.565Z,16.63
2022-10-31T16:55:21.694Z,17.35
2022-10-31T16:58:35.567Z,16.90
2022-10-31T17:01:43.336Z,18.05
2022-10-31T17:04:50.766Z,16.05
2022-10-31T17:07:58.861Z,17.42
2022-10-31T17:11:03.554Z,18.08
2022-10-31T17:14:09.754Z,17.67
2022-10-31T17:17:14.075Z,17.95
2022-10-31T17:20:26.551Z,17.73
2022-10-31T17:23:33.112Z,20.08
2022-10-31T17:26:37.366Z,17.33
2022-10-31T17:29:41.605Z,18.33
2022-10-31T17:32:47.420Z,18.65
2022-10-31T17:35:51.992Z,18.38
2022-10-31T17:38:56.571Z,19.40
2022-10-31T17:42:01.197Z,18.05
2022-10-31T17:45:07.759Z,17.70
2022-10-31T17:48:13.099Z,18.33
2022-10-31T17:51:17.559Z,20.23
2022-10-31T17:54:22.878Z,20.20
2022-10-31T17:57:27.461Z,19.98
2022-10-31T18:00:33.281Z,18.65
2022-10-31T18:03:38.710Z,20.35
2022-10-31T18:06:43.358Z,18.95
2022-10-31T18:09:48.778Z,19.38
2022-10-31T18:12:52.838Z,19.38
2022-10-31T18:15:57.036Z,21.25
2022-10-31T18:19:05.949Z,20.55
2022-10-31T18:22:10.644Z,22.02
2022-10-31T18:25:15.028Z,23.13
2022-10-31T18:28:19.181Z,22.55
2022-10-31T18:31:24.155Z,22.70
2022-10-31T18:34:28.205Z,23.48
2022-10-31T18:37:32.901Z,22.65
2022-10-31T18:40:37.195Z,25.13
2022-10-31T18:46:46.286Z,23.92
2022-10-31T18:49:50.426Z,25.48
2022-10-31T18:52:55.177Z,24.25
2022-10-31T18:55:59.898Z,23.77
2022-10-31T18:59:07.375Z,23.52
2022-10-31T19:02:15.071Z,25.75
2022-10-31T19:05:21.619Z,25.45
2022-10-31T19:08:26.029Z,24.33
2022-10-31T19:11:33.935Z,25.02
2022-10-31T19:14:38.412Z,24.83
2022-10-31T19:17:42.804Z,24.80
2022-10-31T19:20:46.977Z,25.67
2022-10-31T19:23:53.812Z,27.08
2022-10-31T19:27:00.570Z,25.30
2022-10-31T19:30:07.169Z,26.73
2022-10-31T19:33:11.617Z,25.52
2022-10-31T19:36:19.171Z,26.10
2022-10-31T19:39:23.399Z,27.40
2022-10-31T19:42:28.982Z,26.20
2022-10-31T19:45:33.217Z,25.63
2022-10-31T19:48:39.886Z,27.20
2022-10-31T19:51:44.167Z,25.55
2022-10-31T19:54:48.469Z,24.60
2022-10-31T19:58:08.395Z,25.38
2022-10-31T20:01:16.312Z,25.13
2022-10-31T20:04:20.902Z,25.70
2022-10-31T20:07:26.297Z,26.25
2022-10-31T20:10:30.648Z,27.65
2022-10-31T20:13:34.778Z,27.17
2022-10-31T20:16:39.294Z,26.70
2022-10-31T20:19:43.454Z,25.98
2022-10-31T20:22:50.533Z,26.42
2022-10-31T20:25:54.866Z,27.92
2022-10-31T20:29:01.497Z,28.13
2022-10-31T20:32:06.025Z,27.10
2022-10-31T20:35:10.664Z,28.60
2022-10-31T20:38:15.099Z,28.13
2022-10-31T20:41:19.987Z,29.00
2022-10-31T20:44:24.369Z,27.30
2022-10-31T20:47:29.324Z,28.30
2022-10-31T20:50:34.334Z,27.90
2022-10-31T20:53:39.317Z,27.85
2022-10-31T20:56:43.419Z,28.70
2022-10-31T20:59:47.783Z,27.98
2022-10-31T21:02:52.355Z,28.02
2022-10-31T21:06:01.647Z,27.60
2022-10-31T21:09:06.228Z,27.35
2022-10-31T21:12:10.817Z,28.27
2022-10-31T21:18:19.671Z,27.17
2022-10-31T21:21:32.009Z,28.20
2022-10-31T21:24:41.377Z,29.05
2022-10-31T21:27:45.568Z,28.08
2022-10-31T21:30:51.875Z,28.23
2022-10-31T21:33:56.626Z,26.40
2022-10-31T21:37:01.030Z,29.70
2022-10-31T21:40:06.294Z,27.95
2022-10-31T21:43:10.954Z,27.50
2022-10-31T21:46:21.265Z,28.42
2022-10-31T21:49:27.524Z,27.63
2022-10-31T21:52:32.378Z,26.15
2022-10-31T21:55:36.538Z,27.05
2022-10-31T21:58:40.692Z,26.67
2022-10-31T22:01:45.529Z,27.77
2022-10-31T22:04:51.366Z,27.17
2022-10-31T22:07:55.628Z,25.70
2022-10-31T22:11:05.687Z,27.52
2022-10-31T22:14:15.144Z,26.77
2022-10-31T22:17:19.795Z,24.65
2022-10-31T22:20:26.154Z,25.48
2022-10-31T22:23:31.082Z,26.80
2022-10-31T22:26:36.485Z,26.23
2022-10-31T22:29:40.899Z,26.88
2022-10-31T22:32:45.568Z,25.52
2022-10-31T22:35:49.928Z,26.58
2022-10-31T22:38:54.580Z,29.77
2022-10-31T22:41:59.105Z,27.80
2022-10-31T22:45:03.837Z,27.88
2022-10-31T22:48:08.302Z,28.50
2022-10-31T22:51:16.385Z,30.23
2022-10-31T22:54:20.834Z,29.85
2022-10-31T22:57:25.760Z,29.95
2022-10-31T23:00:30.284Z,28.63
2022-10-31T23:03:36.448Z,31.23
2022-10-31T23:06:40.779Z,30.30
2022-10-31T23:09:45.031Z,31.58
2022-10-31T23:13:08.212Z,31.17
2022-10-31T23:16:13.402Z,31.55
2022-10-31T23:19:27.837Z,32.20
2022-10-31T23:22:32.045Z,31.75
2022-10-31T23:25:55.005Z,32.20
2022-10-31T23:28:59.740Z,31.98
2022-10-31T23:32:07.200Z,31.88
2022-10-31T23:35:12.066Z,31.60
2022-10-31T23:38:17.081Z,34.42
2022-10-31T23:41:23.396Z,31.98
2022-10-31T23:44:27.995Z,32.15
2022-10-31T23:47:32.413Z,31.10
2022-10-31T23:50:37.648Z,31.33
2022-10-31T23:53:47.616Z,31.23
2022-10-31T23:56:52.245Z,32.40
2022-10-31T23:59:56.801Z,32.58
